^^
Grace C. Lehan Memorial Weather Station Historical Data
Daily Summary for January 18, 2021 Units:  English    Metric   Both
Daily Weekly Monthly Yearly
  High: Low: Average:
Temperature: 30 °F 23.5 °F 26.4 °F
Dew Point: 24.6 °F 10.8 °F 20.1 °F
Humidity: 91% 52.1% 78%
Wind Speed: 3.5mph 0mph 0.7mph
Wind Gust: 11mph - -
Wind- - SSE
Pressure: 30.49 in 30.26 in -
Precipitation: 0.00 in    
 
 
Tabular Data for January 18, 2021
Time Temperature Dew Point Pressure Wind Wind Speed Wind Gust Humidity Rainfall Rate (Hourly) solar
00:04 26 °F 11.6 °F 30.45 in Calm   2 mph 53.8% 0.00 in 0 W/m2
00:09 26 °F 11.7 °F 30.45 in Calm   1 mph 54.1% 0.00 in 0 W/m2
00:14 26.1 °F 11.7 °F 30.45 in NW 0.1 mph 2 mph 54% 0.00 in 0 W/m2
00:19 26.1 °F 11.7 °F 30.45 in Calm   2 mph 54% 0.00 in 0 W/m2
00:24 26.1 °F 11.4 °F 30.45 in Calm   2 mph 53.1% 0.00 in 0 W/m2
00:29 26.1 °F 11.3 °F 30.45 in NW 0.2 mph 2 mph 53% 0.00 in 0 W/m2
00:34 26 °F 11 °F 30.45 in NW 0.1 mph 2 mph 52.5% 0.00 in 0 W/m2
00:39 26 °F 11.2 °F 30.45 in Calm   2 mph 53% 0.00 in 0 W/m2
00:44 26 °F 11 °F 30.44 in NNW 0.3 mph 2 mph 52.4% 0.00 in 0 W/m2
00:49 25.9 °F 10.8 °F 30.44 in Calm   2 mph 52.1% 0.00 in 0 W/m2
00:54 25.9 °F 11.4 °F 30.44 in Calm   2 mph 53.6% 0.00 in 0 W/m2
00:59 25.9 °F 11.8 °F 30.45 in Calm   2 mph 54.5% 0.00 in 0 W/m2
01:04 25.9 °F 11.5 °F 30.44 in NNW 0.1 mph 2 mph 53.8% 0.00 in 0 W/m2
01:09 25.9 °F 11.2 °F 30.44 in Calm   1 mph 53.2% 0.00 in 0 W/m2
01:14 25.9 °F 11.5 °F 30.45 in Calm   1 mph 54% 0.00 in 0 W/m2
01:19 25.8 °F 11.4 °F 30.46 in Calm   1 mph 53.9% 0.00 in 0 W/m2
01:24 25.8 °F 11.5 °F 30.45 in Calm   1 mph 54% 0.00 in 0 W/m2
01:29 25.8 °F 11.5 °F 30.45 in Calm   1 mph 54% 0.00 in 0 W/m2
01:34 25.8 °F 11.4 °F 30.45 in Calm   1 mph 53.8% 0.00 in 0 W/m2
01:39 25.8 °F 11.4 °F 30.46 in Calm   1 mph 53.9% 0.00 in 0 W/m2
01:44 25.8 °F 11.2 °F 30.46 in NNW 0.1 mph 2 mph 53.3% 0.00 in 0 W/m2
01:49 25.8 °F 11.5 °F 30.45 in Calm   2 mph 54% 0.00 in 0 W/m2
01:54 25.8 °F 11.7 °F 30.45 in Calm   2 mph 54.6% 0.00 in 0 W/m2
01:59 25.8 °F 11.9 °F 30.45 in Calm   2 mph 55% 0.00 in 0 W/m2
02:04 25.8 °F 11.9 °F 30.45 in Calm   2 mph 55% 0.00 in 0 W/m2
02:09 25.9 °F 12 °F 30.45 in Calm     55.2% 0.00 in 0 W/m2
02:14 25.9 °F 12.1 °F 30.46 in Calm   1 mph 55.4% 0.00 in 0 W/m2
02:19 25.9 °F 12 °F 30.45 in NNW 0.4 mph 2 mph 55% 0.00 in 0 W/m2
02:24 25.8 °F 11.9 °F 30.45 in NNW 0.8 mph 3 mph 55% 0.00 in 0 W/m2
02:29 25.8 °F 11.7 °F 30.46 in NNW 0.5 mph 3 mph 54.7% 0.00 in 0 W/m2
02:34 25.7 °F 11.8 °F 30.46 in NNW 0.7 mph 3 mph 55% 0.00 in 0 W/m2
02:39 25.7 °F 11.9 °F 30.46 in NNW 0.2 mph 3 mph 55.2% 0.00 in 0 W/m2
02:44 25.7 °F 12.2 °F 30.46 in Calm   3 mph 56% 0.00 in 0 W/m2
02:49 25.6 °F 12.1 °F 30.46 in NNW 0.7 mph 3 mph 56% 0.00 in 0 W/m2
02:54 25.6 °F 12.2 °F 30.47 in Calm   3 mph 56.2% 0.00 in 0 W/m2
02:59 25.6 °F 12.1 °F 30.46 in Calm   3 mph 56% 0.00 in 0 W/m2
03:04 25.6 °F 12.3 °F 30.47 in Calm   3 mph 56.5% 0.00 in 0 W/m2
03:09 25.6 °F 12.5 °F 30.47 in Calm   1 mph 57% 0.00 in 0 W/m2
03:14 25.7 °F 12.6 °F 30.47 in Calm   1 mph 57% 0.00 in 0 W/m2
03:19 25.7 °F 12.6 °F 30.47 in Calm   1 mph 57% 0.00 in 0 W/m2
03:24 25.7 °F 12.9 °F 30.47 in Calm   1 mph 57.8% 0.00 in 0 W/m2
03:29 25.7 °F 13 °F 30.46 in Calm   1 mph 57.9% 0.00 in 0 W/m2
03:34 25.7 °F 12.9 °F 30.46 in NNW 0.3 mph 2 mph 57.7% 0.00 in 0 W/m2
03:39 25.7 °F 13.1 °F 30.46 in NNW 0.5 mph 3 mph 58.3% 0.00 in 0 W/m2
03:44 25.6 °F 14.1 °F 30.46 in NNW 0.9 mph 6 mph 61% 0.00 in 0 W/m2
03:49 25.6 °F 15 °F 30.46 in NNW 0.1 mph 6 mph 63.7% 0.00 in 0 W/m2
03:54 25.4 °F 15.4 °F 30.46 in NNW 0.6 mph 6 mph 65.4% 0.00 in 0 W/m2
03:59 25.3 °F 16.1 °F 30.47 in NNW 0.4 mph 6 mph 67.5% 0.00 in 0 W/m2
04:09 25 °F 16.8 °F 30.47 in NNW 0.1 mph 2 mph 70.6% 0.00 in 0 W/m2
04:14 24.8 °F 17.1 °F 30.47 in NNW 0.1 mph 2 mph 72.1% 0.00 in 0 W/m2
04:19 24.7 °F 17.4 °F 30.48 in NNW 0.5 mph 3 mph 73.2% 0.00 in 0 W/m2
04:24 24.5 °F 17.6 °F 30.49 in NNW 0.1 mph 3 mph 74.5% 0.00 in 0 W/m2
04:29 24.5 °F 17.9 °F 30.48 in Calm   3 mph 75.5% 0.00 in 0 W/m2
04:34 24.4 °F 18 °F 30.48 in Calm   3 mph 76.4% 0.00 in 0 W/m2
04:39 24.3 °F 18.1 °F 30.48 in Calm     77.1% 0.00 in 0 W/m2
04:44 24.2 °F 18.3 °F 30.47 in Calm     78% 0.00 in 0 W/m2
04:49 24.1 °F 18.4 °F 30.48 in NNW 0.2 mph 2 mph 78.4% 0.00 in 0 W/m2
04:54 24 °F 18.4 °F 30.49 in Calm   2 mph 79% 0.00 in 0 W/m2
04:59 23.9 °F 18.5 °F 30.49 in Calm   2 mph 79.5% 0.00 in 0 W/m2
05:04 23.8 °F 18.5 °F 30.49 in NNW 0.1 mph 2 mph 80% 0.00 in 0 W/m2
05:09 23.8 °F 18.5 °F 30.48 in North 0.2 mph 2 mph 80% 0.00 in 0 W/m2
05:14 23.7 °F 18.7 °F 30.49 in Calm   2 mph 81% 0.00 in 0 W/m2
05:19 23.6 °F 18.7 °F 30.49 in Calm   2 mph 81% 0.00 in 0 W/m2
05:24 23.6 °F 18.6 °F 30.49 in Calm   2 mph 81% 0.00 in 0 W/m2
05:29 23.6 °F 18.6 °F 30.48 in Calm   2 mph 81% 0.00 in 0 W/m2
05:34 23.6 °F 18.6 °F 30.48 in Calm   2 mph 81% 0.00 in 0 W/m2
05:39 23.5 °F 18.4 °F 30.49 in Calm     80.7% 0.00 in 0 W/m2
05:44 23.5 °F 18.5 °F 30.49 in Calm     81% 0.00 in 0 W/m2
05:49 23.5 °F 18.4 °F 30.49 in Calm     80.6% 0.00 in 0 W/m2
05:54 23.5 °F 18.3 °F 30.49 in Calm     80.2% 0.00 in 0 W/m2
05:59 23.6 °F 18.3 °F 30.49 in Calm     80% 0.00 in 0 W/m2
06:04 23.6 °F 18.4 °F 30.48 in Calm     80% 0.00 in 0 W/m2
06:08 23.6 °F 18.4 °F 30.48 in Calm     80% 0.00 in 0 W/m2
06:14 23.7 °F 18.3 °F 30.48 in Calm     79.4% 0.00 in 0 W/m2
06:19 23.8 °F 18.2 °F 30.48 in Calm     79% 0.00 in 0 W/m2
06:24 23.8 °F 18.1 °F 30.49 in Calm     78.4% 0.00 in 0 W/m2
06:29 23.8 °F 17.9 °F 30.49 in Calm     78% 0.00 in 0 W/m2
06:34 23.7 °F 17.9 °F 30.49 in Calm     78% 0.00 in 0 W/m2
06:39 23.8 °F 17.9 °F 30.49 in Calm     78% 0.00 in 0 W/m2
06:44 23.8 °F 18 °F 30.49 in Calm     78% 0.00 in 0 W/m2
06:49 23.9 °F 18.1 °F 30.48 in Calm     78.2% 0.00 in 0 W/m2
06:54 24 °F 18.3 °F 30.48 in North 0.3 mph 2 mph 78.6% 0.00 in 5 W/m2
06:59 24.1 °F 18.5 °F 30.47 in North 0.1 mph 2 mph 78.8% 0.00 in 9 W/m2
07:04 24.2 °F 18.3 °F 30.48 in NNE 0.7 mph 5 mph 78% 0.00 in 14 W/m2
07:09 24.2 °F 18.4 °F 30.48 in NE 0.1 mph 5 mph 78% 0.00 in 16 W/m2
07:14 24.3 °F 18.8 °F 30.47 in NE 0.1 mph 5 mph 79% 0.00 in 19 W/m2
07:19 24.4 °F 18.8 °F 30.47 in NE 0.1 mph 5 mph 79% 0.00 in 28 W/m2
07:24 24.5 °F 18.8 °F 30.47 in NE 0.4 mph 5 mph 78.7% 0.00 in 35 W/m2
07:29 24.5 °F 18.6 °F 30.47 in NE 0.4 mph 5 mph 78% 0.00 in 51 W/m2
07:34 24.4 °F 18.4 °F 30.47 in Calm   5 mph 77.5% 0.00 in 70 W/m2
07:39 24.5 °F 18.7 °F 30.48 in NE 0.2 mph 2 mph 78% 0.00 in 70 W/m2
07:44 24.7 °F 18.9 °F 30.48 in Calm   2 mph 78.4% 0.00 in 70 W/m2
07:49 24.8 °F 19.3 °F 30.48 in Calm   2 mph 79% 0.00 in 81 W/m2
07:54 25 °F 19.4 °F 30.48 in Calm   2 mph 79% 0.00 in 84 W/m2
07:59 25.2 °F 19.6 °F 30.48 in Calm   2 mph 79% 0.00 in 97 W/m2
08:00 25.3 °F 19.7 °F 30.48 in Calm   2 mph 79% 0.00 in 97 W/m2
08:09 25.5 °F 19.8 °F 30.47 in Calm     78.5% 0.00 in 105 W/m2
08:14 25.5 °F 19.7 °F 30.48 in NE 0.1 mph 2 mph 78.3% 0.00 in 158 W/m2
08:19 25.7 °F 20.1 °F 30.48 in NE 0.3 mph 2 mph 79% 0.00 in 178 W/m2
08:24 26 °F 20.3 °F 30.48 in NE 0.7 mph 3 mph 78.6% 0.00 in 153 W/m2
08:29 26.2 °F 20.1 °F 30.47 in Calm   3 mph 77.6% 0.00 in 149 W/m2
08:34 26.3 °F 20.4 °F 30.47 in NNE 0.3 mph 3 mph 77.8% 0.00 in 151 W/m2
08:39 26.5 °F 20.6 °F 30.46 in NNE 0.7 mph 4 mph 78% 0.00 in 179 W/m2
08:44 26.7 °F 20.5 °F 30.46 in NE 1.4 mph 4 mph 77.1% 0.00 in 181 W/m2
08:49 26.9 °F 20.8 °F 30.45 in NE 1.4 mph 5 mph 77.5% 0.00 in 188 W/m2
08:54 27.1 °F 21.2 °F 30.45 in North 0.4 mph 5 mph 78% 0.00 in 193 W/m2
08:59 27.4 °F 21.4 °F 30.45 in NE 2.5 mph 5 mph 77.8% 0.00 in 190 W/m2
09:04 27.5 °F 21 °F 30.45 in NE 1.6 mph 5 mph 76.5% 0.00 in 190 W/m2
09:09 27.4 °F 20.9 °F 30.45 in NE 0.7 mph 5 mph 76% 0.00 in 153 W/m2
09:14 27.5 °F 21 °F 30.45 in NE 0.4 mph 5 mph 76.3% 0.00 in 160 W/m2
09:19 27.6 °F 21.4 °F 30.45 in NE 0.2 mph 5 mph 77% 0.00 in 158 W/m2
09:24 27.8 °F 21.5 °F 30.47 in Calm   5 mph 77% 0.00 in 130 W/m2
09:29 27.8 °F 21.4 °F 30.47 in Calm   5 mph 76.5% 0.00 in 142 W/m2
09:34 27.8 °F 21.2 °F 30.46 in NNE 0.3 mph 5 mph 76% 0.00 in 113 W/m2
09:39 27.8 °F 21.2 °F 30.46 in NNE 0.6 mph 3 mph 76% 0.00 in 86 W/m2
09:44 27.7 °F 21.1 °F 30.46 in NNW 1 mph 4 mph 75.7% 0.00 in 118 W/m2
09:49 27.7 °F 21.2 °F 30.46 in NNW 1 mph 4 mph 76.3% 0.00 in 121 W/m2
09:54 27.8 °F 21.4 °F 30.46 in North 0.8 mph 4 mph 76.6% 0.00 in 146 W/m2
09:59 28 °F 21.7 °F 30.45 in NNE 0.7 mph 4 mph 76.9% 0.00 in 167 W/m2
10:04 28.1 °F 21.6 °F 30.45 in North 0.5 mph 4 mph 76% 0.00 in 178 W/m2
10:09 28.3 °F 21.6 °F 30.45 in North 0.1 mph 4 mph 75.9% 0.00 in 204 W/m2
10:14 28.4 °F 21.9 °F 30.44 in NNE 0.4 mph 4 mph 76.3% 0.00 in 204 W/m2
10:19 28.7 °F 22.2 °F 30.43 in NNE 1.5 mph 4 mph 76.4% 0.00 in 192 W/m2
10:24 28.8 °F 21.6 °F 30.42 in NE 1.3 mph 4 mph 74.2% 0.00 in 186 W/m2
10:29 28.8 °F 21.6 °F 30.42 in NE 0.6 mph 4 mph 74% 0.00 in 158 W/m2
10:34 28.9 °F 21.7 °F 30.42 in NNE 1.2 mph 5 mph 74.1% 0.00 in 141 W/m2
10:39 29 °F 21.7 °F 30.42 in NNE 0.9 mph 6 mph 74% 0.00 in 139 W/m2
10:44 29.1 °F 21.7 °F 30.42 in NNW 0.1 mph 6 mph 73.6% 0.00 in 132 W/m2
10:49 29.1 °F 21.4 °F 30.42 in NNE 1.6 mph 6 mph 72.7% 0.00 in 123 W/m2
10:54 29 °F 21 °F 30.43 in NNE 0.6 mph 6 mph 71.7% 0.00 in 127 W/m2
10:59 29.1 °F 21.3 °F 30.43 in North 0.2 mph 6 mph 72% 0.00 in 148 W/m2
11:04 29.3 °F 21.6 °F 30.43 in NE 1.1 mph 6 mph 72.7% 0.00 in 176 W/m2
11:09 29.4 °F 21 °F 30.43 in ENE 1.4 mph 6 mph 70.6% 0.00 in 206 W/m2
11:14 29.4 °F 20.9 °F 30.42 in NE 1.3 mph 6 mph 70% 0.00 in 207 W/m2
11:19 29.5 °F 21.1 °F 30.42 in NNE 1.3 mph 6 mph 70.5% 0.00 in 221 W/m2
11:24 29.5 °F 20.9 °F 30.41 in NNE 1.4 mph 6 mph 69.7% 0.00 in 223 W/m2
11:29 29.6 °F 21 °F 30.40 in NNE 1.4 mph 6 mph 69.8% 0.00 in 218 W/m2
11:34 29.8 °F 21.1 °F 30.41 in NNE 1.4 mph 6 mph 69.7% 0.00 in 206 W/m2
11:39 29.9 °F 21.5 °F 30.41 in NNE 1.1 mph 4 mph 70.6% 0.00 in 178 W/m2
11:44 30 °F 21.8 °F 30.40 in NNE 0.7 mph 5 mph 71% 0.00 in 172 W/m2
11:49 30 °F 22.1 °F 30.40 in North 0.1 mph 5 mph 72% 0.00 in 158 W/m2
11:54 29.8 °F 22 °F 30.40 in North 0.7 mph 5 mph 72.2% 0.00 in 132 W/m2
11:59 29.6 °F 22.1 °F 30.40 in North 1.2 mph 7 mph 73.2% 0.00 in 100 W/m2
12:04 29.3 °F 22.1 °F 30.40 in NNW 2 mph 2 mph 74% 0.00 in 79 W/m2
12:09 29.2 °F 22 °F 30.40 in NNW 0.3 mph 2 mph 74% 0.00 in 79 W/m2
12:14 29 °F 22 °F 30.40 in NNW 1.4 mph 5 mph 74.7% 0.00 in 76 W/m2
12:19 28.9 °F 22.1 °F 30.40 in NNW 0.9 mph 5 mph 75.4% 0.00 in 67 W/m2
12:24 28.7 °F 22.1 °F 30.40 in NNW 1 mph 5 mph 76% 0.00 in 65 W/m2
12:28 28.5 °F 22 °F 30.40 in NNW 0.3 mph 5 mph 76.3% 0.00 in 60 W/m2
12:30 28.5 °F 22.5 °F 30.40 in NNW 1 mph 5 mph 78% 0.00 in 69 W/m2
13:00 27.4 °F 22.9 °F 30.37 in NNW 2 mph 10 mph 83% 0.00 in 63 W/m2
13:30 27.2 °F 23.6 °F 30.35 in NNW 1 mph 6 mph 86% 0.00 in 94 W/m2
14:00 27.9 °F 24 °F 30.37 in NE 1 mph 7 mph 85% 0.00 in 112 W/m2
14:30 27.7 °F 23.5 °F 30.35 in NNW 1 mph 10 mph 84% 0.00 in 73 W/m2
15:00 27.9 °F 23.7 °F 30.33 in NNW 1 mph 7 mph 84% 0.00 in 45 W/m2
15:30 27.7 °F 23.8 °F 30.35 in NE 1 mph 5 mph 85% 0.00 in 33 W/m2
16:04 27.8 °F 23.9 °F 30.35 in NNE 0.2 mph 5 mph 85% 0.00 in 33 W/m2
16:09 27.9 °F 24.2 °F 30.35 in NE 1.3 mph 4 mph 85.8% 0.00 in 39 W/m2
16:14 27.9 °F 24.2 °F 30.34 in NE 0.9 mph 5 mph 86% 0.00 in 47 W/m2
16:19 27.8 °F 24.2 °F 30.34 in ENE 2.4 mph 6 mph 86% 0.00 in 46 W/m2
16:24 27.7 °F 24.1 °F 30.34 in NE 1.5 mph 6 mph 86% 0.00 in 39 W/m2
16:29 27.7 °F 24.3 °F 30.34 in NE 0.7 mph 6 mph 86.8% 0.00 in 26 W/m2
16:34 27.8 °F 24.4 °F 30.34 in NNW 1.3 mph 6 mph 87% 0.00 in 26 W/m2
16:39 27.8 °F 24.4 °F 30.34 in NNW 1.9 mph 9 mph 87% 0.00 in 28 W/m2
16:44 27.7 °F 24.4 °F 30.34 in NNW 1.1 mph 9 mph 87% 0.00 in 18 W/m2
16:49 27.7 °F 24.5 °F 30.34 in NNW 1.9 mph 9 mph 87.6% 0.00 in 16 W/m2
16:54 27.7 °F 24.6 °F 30.34 in NNW 2.3 mph 10 mph 88% 0.00 in 16 W/m2
16:59 27.6 °F 24.5 °F 30.34 in NNW 1.6 mph 10 mph 88% 0.00 in 16 W/m2
17:04 27.6 °F 24.5 °F 30.34 in NNW 1.2 mph 10 mph 88% 0.00 in 7 W/m2
17:09 27.6 °F 24.5 °F 30.33 in NNE 0.8 mph 7 mph 88% 0.00 in 5 W/m2
17:14 27.6 °F 24.5 °F 30.34 in NNW 0.9 mph 10 mph 88% 0.00 in 0 W/m2
17:19 27.5 °F 24.4 °F 30.34 in North 0.7 mph 10 mph 88% 0.00 in 0 W/m2
17:24 27.4 °F 24.3 °F 30.34 in North 0.9 mph 10 mph 88% 0.00 in 0 W/m2
17:29 27.3 °F 24.2 °F 30.34 in NNW 1.8 mph 10 mph 88% 0.00 in 0 W/m2
17:34 27.2 °F 24.1 °F 30.34 in NNW 0.8 mph 10 mph 88% 0.00 in 0 W/m2
17:39 27.2 °F 24.1 °F 30.34 in NNW 0.1 mph 3 mph 88% 0.00 in 0 W/m2
17:44 27.2 °F 24.3 °F 30.34 in North 0.6 mph 6 mph 88.7% 0.00 in 0 W/m2
17:49 27.1 °F 24.3 °F 30.35 in NE 1.4 mph 6 mph 89% 0.00 in 0 W/m2
17:54 27 °F 24.2 °F 30.35 in NE 0.5 mph 6 mph 89% 0.00 in 0 W/m2
17:59 27 °F 24.2 °F 30.34 in NNE 0.8 mph 6 mph 89% 0.00 in 0 W/m2
18:04 26.9 °F 24.1 °F 30.34 in NNE 2.7 mph 10 mph 89% 0.00 in 0 W/m2
18:09 26.8 °F 24 °F 30.35 in NE 1.5 mph 10 mph 89% 0.00 in 0 W/m2
18:14 26.7 °F 23.9 °F 30.35 in NE 2 mph 10 mph 89% 0.00 in 0 W/m2
18:19 26.6 °F 23.8 °F 30.35 in ENE 2 mph 10 mph 89% 0.00 in 0 W/m2
18:24 26.5 °F 23.7 °F 30.34 in NE 1.5 mph 10 mph 89% 0.00 in 0 W/m2
18:29 26.5 °F 23.9 °F 30.34 in NE 0.3 mph 10 mph 89.8% 0.00 in 0 W/m2
18:34 26.6 °F 24 °F 30.34 in ENE 0.7 mph 10 mph 90% 0.00 in 0 W/m2
18:39 26.6 °F 24.1 °F 30.34 in NE 0.2 mph 4 mph 90% 0.00 in 0 W/m2
18:44 26.6 °F 24.1 °F 30.34 in NE 0.6 mph 4 mph 90% 0.00 in 0 W/m2
18:49 26.7 °F 24.2 °F 30.34 in NNE 1 mph 5 mph 90% 0.00 in 0 W/m2
18:54 26.7 °F 24.2 °F 30.33 in Calm   5 mph 90% 0.00 in 0 W/m2
18:59 26.7 °F 24.2 °F 30.33 in North 0.4 mph 5 mph 90% 0.00 in 0 W/m2
19:04 26.7 °F 24.2 °F 30.34 in North 2.3 mph 6 mph 90% 0.00 in 0 W/m2
19:09 26.6 °F 24.1 °F 30.33 in North 1 mph 6 mph 90% 0.00 in 0 W/m2
19:14 26.6 °F 24 °F 30.33 in NNE 1.6 mph 6 mph 90% 0.00 in 0 W/m2
19:19 26.5 °F 24 °F 30.32 in North 1.2 mph 6 mph 90% 0.00 in 0 W/m2
19:24 26.5 °F 24 °F 30.32 in North 2 mph 6 mph 90% 0.00 in 0 W/m2
19:29 26.4 °F 23.9 °F 30.31 in NNE 2.8 mph 6 mph 90% 0.00 in 0 W/m2
19:34 26.4 °F 23.9 °F 30.32 in NNW 1 mph 6 mph 90% 0.00 in 0 W/m2
19:39 26.3 °F 23.8 °F 30.32 in NNW 1.5 mph 10 mph 90% 0.00 in 0 W/m2
19:44 26.3 °F 23.8 °F 30.32 in North 0.7 mph 10 mph 90% 0.00 in 0 W/m2
19:49 26.3 °F 23.8 °F 30.31 in North 1.6 mph 10 mph 90% 0.00 in 0 W/m2
19:54 26.3 °F 23.8 °F 30.31 in NNW 2.7 mph 10 mph 90% 0.00 in 0 W/m2
19:59 26.3 °F 23.8 °F 30.30 in NE 1 mph 10 mph 90% 0.00 in 0 W/m2
20:09 26.2 °F 23.7 °F 30.29 in NE 2.3 mph 4 mph 90% 0.00 in 0 W/m2
20:14 26.2 °F 23.7 °F 30.29 in NNE 1 mph 5 mph 90% 0.00 in 0 W/m2
20:19 26.2 °F 23.7 °F 30.30 in North 1.8 mph 5 mph 90% 0.00 in 0 W/m2
20:24 26.3 °F 23.7 °F 30.30 in North 0.8 mph 5 mph 90% 0.00 in 0 W/m2
20:29 26.3 °F 23.8 °F 30.29 in NE 1.9 mph 6 mph 90% 0.00 in 0 W/m2
20:34 26.3 °F 23.7 °F 30.29 in NE 0.9 mph 6 mph 90% 0.00 in 0 W/m2
20:39 26.3 °F 23.8 °F 30.30 in North 1.4 mph 11 mph 90% 0.00 in 0 W/m2
20:44 26.3 °F 23.8 °F 30.30 in North 2.3 mph 11 mph 90% 0.00 in 0 W/m2
20:49 26.3 °F 23.8 °F 30.30 in North 1 mph 11 mph 90% 0.00 in 0 W/m2
20:54 26.3 °F 23.8 °F 30.30 in North 1.8 mph 11 mph 90% 0.00 in 0 W/m2
20:59 26.3 °F 23.8 °F 30.30 in North 1.5 mph 11 mph 90% 0.00 in 0 W/m2
21:04 26.4 °F 23.9 °F 30.30 in NNW 1.8 mph 11 mph 90% 0.00 in 0 W/m2
21:09 26.4 °F 23.9 °F 30.30 in North 0.6 mph 5 mph 90% 0.00 in 0 W/m2
21:14 26.4 °F 23.7 °F 30.30 in North 0.1 mph 5 mph 89.2% 0.00 in 0 W/m2
21:19 26.4 °F 23.6 °F 30.30 in North 1.7 mph 7 mph 89% 0.00 in 0 W/m2
21:24 26.4 °F 23.6 °F 30.30 in North 2 mph 7 mph 89% 0.00 in 0 W/m2
21:29 26.5 °F 23.7 °F 30.30 in NNE 1.9 mph 7 mph 89% 0.00 in 0 W/m2
21:34 26.5 °F 23.7 °F 30.30 in North 1.1 mph 7 mph 89% 0.00 in 0 W/m2
21:39 26.5 °F 23.7 °F 30.29 in North 0.8 mph 5 mph 89% 0.00 in 0 W/m2
21:44 26.5 °F 23.7 °F 30.29 in NE 1.5 mph 5 mph 89% 0.00 in 0 W/m2
21:49 26.5 °F 23.7 °F 30.29 in NNE 1.3 mph 5 mph 89% 0.00 in 0 W/m2
21:54 26.4 °F 23.6 °F 30.30 in North 1.1 mph 5 mph 89% 0.00 in 0 W/m2
21:59 26.4 °F 23.7 °F 30.30 in North 1 mph 5 mph 89.5% 0.00 in 0 W/m2
22:04 26.4 °F 23.9 °F 30.30 in NNW 0.4 mph 5 mph 90% 0.00 in 0 W/m2
22:09 26.4 °F 23.9 °F 30.30 in North 0.2 mph 3 mph 90% 0.00 in 0 W/m2
22:14 26.4 °F 23.9 °F 30.30 in Calm   3 mph 90% 0.00 in 0 W/m2
22:19 26.4 °F 23.9 °F 30.28 in NNE 0.9 mph 3 mph 90% 0.00 in 0 W/m2
22:24 26.3 °F 23.8 °F 30.28 in NE 1.7 mph 5 mph 90% 0.00 in 0 W/m2
22:29 26.3 °F 23.8 °F 30.28 in NE 1 mph 5 mph 90% 0.00 in 0 W/m2
22:34 26.3 °F 23.8 °F 30.28 in NE 0.1 mph 5 mph 90% 0.00 in 0 W/m2
22:39 26.3 °F 23.8 °F 30.28 in Calm   2 mph 90% 0.00 in 0 W/m2
22:44 26.4 °F 24.1 °F 30.28 in NNE 0.6 mph 4 mph 91% 0.00 in 0 W/m2
22:49 26.4 °F 24.1 °F 30.27 in NNE 0.1 mph 4 mph 91% 0.00 in 0 W/m2
22:54 26.4 °F 24.1 °F 30.27 in North 1.2 mph 6 mph 91% 0.00 in 0 W/m2
22:59 26.4 °F 24.1 °F 30.27 in NNW 0.1 mph 6 mph 91% 0.00 in 0 W/m2
23:04 26.4 °F 24.1 °F 30.27 in Calm   6 mph 91% 0.00 in 0 W/m2
23:09 26.4 °F 24.1 °F 30.28 in North 1.3 mph 6 mph 91% 0.00 in 0 W/m2
23:14 26.4 °F 24.2 °F 30.27 in NNW 0.5 mph 6 mph 91% 0.00 in 0 W/m2
23:19 26.5 °F 24.2 °F 30.27 in NW 1.7 mph 10 mph 91% 0.00 in 0 W/m2
23:24 26.5 °F 24.2 °F 30.26 in Calm   10 mph 91% 0.00 in 0 W/m2
23:29 26.5 °F 24.2 °F 30.26 in North 1.8 mph 10 mph 91% 0.00 in 0 W/m2
23:34 26.5 °F 24.2 °F 30.27 in NNW 1.1 mph 10 mph 91% 0.00 in 0 W/m2
23:39 26.5 °F 24.2 °F 30.27 in NNW 1.4 mph 6 mph 91% 0.00 in 0 W/m2
23:44 26.5 °F 24.2 °F 30.27 in NNW 2.3 mph 6 mph 91% 0.00 in 0 W/m2
23:49 26.5 °F 24.2 °F 30.27 in NNW 2.8 mph 7 mph 91% 0.00 in 0 W/m2
23:54 26.5 °F 24.2 °F 30.27 in NNW 1.3 mph 7 mph 91% 0.00 in 0 W/m2
23:59 26.6 °F 24.3 °F 30.27 in NNW 3.5 mph 9 mph 91% 0.00 in 0 W/m2
Hartford County Weather
Compliments of Weather Underground - 2 mb